Time;durP1;ratioP1;P1;durP2;ratioP2;P2;SDS_P1;SDS_P2;PMS_P1;PMS_P2;Temp;Humidity;BMP_temperature;BMP_pressure;BME280_temperature;BME280_humidity;BME280_pressure;Samples;Min_cycle;Max_cycle;Signal;HPM_P1;HPM_P2
2022/09/07 00:02:09;;;;;;;4.97;4.47;;;;;;;18.73;83.61;101233.66;5045262;28;20021;-48
2022/09/07 00:04:34;;;;;;;6.63;4.37;;;;;;;18.68;82.32;101232.31;5026522;28;20779;-50
2022/09/07 00:06:59;;;;;;;6.53;3.97;;;;;;;18.66;82.86;101233.47;5044446;28;20315;-48
2022/09/07 00:09:24;;;;;;;3.97;3.50;;;;;;;18.60;82.01;101217.97;5037527;28;20057;-47
2022/09/07 00:11:50;;;;;;;4.05;3.00;;;;;;;18.55;80.91;101217.59;5037395;28;20284;-47
2022/09/07 00:14:15;;;;;;;6.22;3.63;;;;;;;18.49;81.64;101209.19;5020504;28;20018;-48
2022/09/07 00:16:40;;;;;;;6.45;3.10;;;;;;;18.39;80.62;101197.72;5037634;28;20030;-47
2022/09/07 00:19:05;;;;;;;4.33;3.30;;;;;;;18.36;82.14;101195.34;5037061;28;20117;-49
2022/09/07 00:21:31;;;;;;;3.90;3.43;;;;;;;18.27;82.78;101205.22;5040522;28;20280;-46
2022/09/07 00:23:56;;;;;;;4.53;3.60;;;;;;;18.14;83.26;101207.47;5033704;28;20309;-48
2022/09/07 00:26:25;;;;;;;5.85;3.83;;;;;;;18.05;82.63;101208.41;5047289;28;20026;-46
2022/09/07 00:28:52;;;;;;;4.93;4.13;;;;;;;18.02;82.15;101208.72;5048621;28;20037;-46
2022/09/07 00:31:20;;;;;;;5.47;4.28;;;;;;;17.94;83.37;101206.84;5041582;28;20030;-47
2022/09/07 00:33:47;;;;;;;7.57;4.80;;;;;;;17.87;83.37;101198.56;5038432;28;20038;-47
2022/09/07 00:36:14;;;;;;;5.38;4.82;;;;;;;17.79;82.97;101201.16;5050493;28;20284;-47
2022/09/07 00:38:39;;;;;;;7.13;4.97;;;;;;;17.76;82.12;101183.50;5034604;28;20036;-46
2022/09/07 00:41:05;;;;;;;6.63;4.50;;;;;;;17.71;82.10;101185.81;5027771;28;20049;-46
2022/09/07 00:43:37;;;;;;;7.75;4.95;;;;;;;17.64;82.49;101183.91;5022104;28;20657;-46
2022/09/07 00:46:05;;;;;;;8.35;4.63;;;;;;;17.56;82.54;101176.63;5044252;28;20040;-46
2022/09/07 00:48:35;;;;;;;6.47;4.75;;;;;;;17.56;83.35;101169.41;5042087;28;20022;-47
2022/09/07 00:54:03;;;;;;;5.53;4.30;;;;;;;17.55;81.81;101148.06;5107417;22;20057;-80
2022/09/07 00:56:35;;;;;;;7.00;4.60;;;;;;;17.44;84.12;101142.97;5058783;28;20455;-81
2022/09/07 00:59:01;;;;;;;6.60;4.70;;;;;;;17.36;84.50;101143.72;5075469;28;20393;-81
2022/09/07 01:01:30;;;;;;;7.50;4.53;;;;;;;17.36;84.49;101143.72;5079954;28;20067;-80
2022/09/07 01:03:59;;;;;;;6.07;4.00;;;;;;;17.36;84.28;101149.09;5077095;28;20028;-81
2022/09/07 01:06:29;;;;;;;6.28;4.45;;;;;;;17.29;84.68;101161.47;5079185;28;20095;-81
2022/09/07 01:08:58;;;;;;;7.22;4.75;;;;;;;17.25;84.75;101152.00;5080729;28;20020;-82
2022/09/07 01:11:24;;;;;;;5.38;4.70;;;;;;;17.29;84.74;101153.41;5069977;28;20047;-81
2022/09/07 01:13:50;;;;;;;6.03;4.45;;;;;;;17.21;85.08;101148.78;5078433;28;20467;-80
2022/09/07 01:16:50;;;;;;;6.63;4.25;;;;;;;17.19;84.41;101151.63;5042313;28;20025;-81
2022/09/07 01:19:28;;;;;;;4.78;4.32;;;;;;;17.27;84.60;101152.69;5068051;28;20519;-81
2022/09/07 01:22:05;;;;;;;4.70;3.90;;;;;;;17.20;84.89;101158.69;5077592;28;20032;-81
2022/09/07 01:24:57;;;;;;;8.85;4.10;;;;;;;17.22;85.42;101168.41;5073304;28;20030;-82
2022/09/07 01:27:49;;;;;;;5.30;3.97;;;;;;;17.17;83.95;101159.00;5077836;28;20028;-82
2022/09/07 01:30:17;;;;;;;5.72;4.05;;;;;;;17.12;85.98;101152.38;5071866;28;20078;-82
2022/09/07 01:33:07;;;;;;;4.18;3.88;;;;;;;17.15;84.76;101154.78;5077794;28;20042;-82
2022/09/07 01:36:10;;;;;;;4.22;3.70;;;;;;;17.22;83.73;101163.91;5077151;28;20390;-82
2022/09/07 01:38:41;;;;;;;3.92;3.60;;;;;;;17.18;85.08;101163.34;5066061;28;20025;-82
2022/09/07 01:41:15;;;;;;;6.40;3.92;;;;;;;17.10;84.68;101154.38;5078493;28;20082;-81
2022/09/07 01:43:54;;;;;;;5.05;3.75;;;;;;;17.12;84.51;101157.75;5077565;28;20109;-81
2022/09/07 01:46:28;;;;;;;4.28;3.70;;;;;;;17.13;85.57;101151.41;5078905;28;20036;-81
2022/09/07 01:49:07;;;;;;;6.47;3.90;;;;;;;17.06;85.21;101148.50;5071964;28;20021;-81
2022/09/07 01:51:37;;;;;;;4.38;3.95;;;;;;;17.04;84.94;101152.31;5074116;28;20488;-82
2022/09/07 01:54:21;;;;;;;5.03;4.20;;;;;;;17.06;85.26;101153.84;5058772;28;20028;-82
2022/09/07 01:56:49;;;;;;;4.25;3.42;;;;;;;17.00;86.59;101165.19;5052873;28;20037;-82
2022/09/07 01:59:29;;;;;;;4.82;3.75;;;;;;;17.04;86.03;101169.28;5054202;28;20083;-82
2022/09/07 02:02:06;;;;;;;6.50;4.35;;;;;;;16.97;86.15;101154.75;5025851;28;20060;-81
2022/09/07 02:04:45;;;;;;;5.13;3.55;;;;;;;16.99;85.56;101158.16;5059891;28;20033;-82
2022/09/07 02:07:16;;;;;;;6.18;3.70;;;;;;;16.94;85.95;101150.56;5058582;28;20029;-82
2022/09/07 02:09:52;;;;;;;3.70;3.30;;;;;;;16.95;85.99;101157.63;5047934;28;20399;-81
2022/09/07 02:12:25;;;;;;;5.10;3.80;;;;;;;16.96;86.20;101151.25;5047731;28;20033;-82
2022/09/07 02:15:10;;;;;;;5.13;3.67;;;;;;;16.92;87.12;101165.09;5065650;28;20048;-82
2022/09/07 02:17:42;;;;;;;3.92;3.40;;;;;;;16.96;87.52;101155.78;5051486;28;20032;-82
2022/09/07 02:20:15;;;;;;;5.18;3.63;;;;;;;16.91;86.28;101163.44;5066202;28;20056;-82
2022/09/07 02:22:44;;;;;;;5.75;3.80;;;;;;;16.86;87.72;101163.88;5064323;28;20033;-82
2022/09/07 02:25:18;;;;;;;3.83;3.50;;;;;;;16.89;87.78;101168.94;5061912;28;20028;-81
2022/09/07 02:27:48;;;;;;;5.30;4.20;;;;;;;16.85;87.13;101153.28;5061232;28;20037;-82
2022/09/07 02:30:14;;;;;;;4.10;3.70;;;;;;;16.81;85.73;101150.03;5053677;28;20112;-81
2022/09/07 02:32:39;;;;;;;4.43;3.97;;;;;;;16.85;86.85;101154.13;5050007;28;20060;-81
2022/09/07 02:35:05;;;;;;;8.57;4.10;;;;;;;16.85;87.42;101159.50;5058517;28;20056;-81
2022/09/07 02:37:32;;;;;;;5.75;4.22;;;;;;;16.82;86.92;101160.63;5035708;28;20027;-81
2022/09/07 02:39:59;;;;;;;6.60;3.72;;;;;;;16.82;87.83;101159.78;5056504;28;20489;-81
2022/09/07 02:42:27;;;;;;;5.43;4.20;;;;;;;16.81;87.82;101166.97;5058437;28;20060;-81
2022/09/07 02:44:52;;;;;;;4.35;3.95;;;;;;;16.79;88.30;101154.72;5057356;28;20100;-81
2022/09/07 02:47:37;;;;;;;3.83;3.53;;;;;;;16.84;88.35;101173.88;5058199;28;20061;-80
2022/09/07 02:50:24;;;;;;;5.20;3.90;;;;;;;16.76;87.44;101158.53;5057215;28;20074;-82
2022/09/07 02:53:12;;;;;;;5.35;4.13;;;;;;;16.73;87.53;101147.25;5058210;28;20442;-81
2022/09/07 02:55:52;;;;;;;5.95;3.67;;;;;;;16.70;86.70;101148.41;5057036;28;20043;-82
2022/09/07 02:58:50;;;;;;;6.43;4.30;;;;;;;16.67;86.79;101139.81;5058715;28;20037;-80
2022/09/07 03:01:45;;;;;;;7.65;4.20;;;;;;;16.66;87.44;101168.47;5037592;28;20048;-81
2022/09/07 03:04:21;;;;;;;4.43;4.03;;;;;;;16.62;87.98;101169.75;5053364;28;20037;-81
2022/09/07 03:06:55;;;;;;;4.63;4.22;;;;;;;16.54;89.28;101165.16;5057738;28;20032;-81
2022/09/07 03:09:29;;;;;;;5.05;4.13;;;;;;;16.56;88.39;101170.38;5058529;28;20036;-81
2022/09/07 03:11:55;;;;;;;5.13;4.57;;;;;;;16.56;89.51;101176.56;5057539;28;20033;-82
2022/09/07 03:14:23;;;;;;;5.35;4.25;;;;;;;16.59;89.91;101167.41;5046143;28;20025;-81
2022/09/07 03:16:52;;;;;;;5.18;4.35;;;;;;;16.61;90.11;101160.03;5056954;28;20456;-81
2022/09/07 03:19:17;;;;;;;5.45;4.22;;;;;;;16.62;88.94;101143.81;5059062;28;20108;-81
2022/09/07 03:21:43;;;;;;;5.03;4.53;;;;;;;16.64;89.09;101157.06;5059481;28;20040;-82
2022/09/07 03:24:08;;;;;;;5.32;4.82;;;;;;;16.64;89.11;101159.75;5061053;28;20025;-80
2022/09/07 03:26:37;;;;;;;5.10;4.45;;;;;;;16.60;90.02;101147.63;5057325;28;20476;-81
2022/09/07 03:29:03;;;;;;;;;;;;;;;16.76;86.29;101155.84;5058782;28;20372;-80
2022/09/07 03:31:33;;;;;;;8.00;4.70;;;;;;;16.56;89.03;101156.97;5058308;28;19915;-81
2022/09/07 03:33:59;;;;;;;5.15;4.65;;;;;;;16.57;89.94;101164.00;5063119;28;20285;-82
2022/09/07 03:36:24;;;;;;;7.13;4.95;;;;;;;16.54;89.34;101148.22;5061488;28;20057;-81
2022/09/07 03:38:49;;;;;;;5.30;4.80;;;;;;;16.55;89.15;101153.41;5061638;28;20034;-80
2022/09/07 03:41:15;;;;;;;6.03;4.80;;;;;;;16.56;88.55;101157.81;5063568;28;20025;-81
2022/09/07 03:43:43;;;;;;;5.75;4.85;;;;;;;16.53;89.46;101173.34;5057228;28;20017;-82
2022/09/07 03:46:09;;;;;;;6.47;5.10;;;;;;;16.46;89.22;101165.06;5062868;28;20033;-80
2022/09/07 03:48:35;;;;;;;6.30;4.93;;;;;;;16.47;88.78;101174.78;5059743;28;20307;-82
2022/09/07 03:51:06;;;;;;;6.03;5.18;;;;;;;16.49;90.00;101151.34;5062921;28;20033;-82
2022/09/07 03:53:34;;;;;;;6.32;5.35;;;;;;;16.48;89.56;101144.28;5063484;28;20049;-81
2022/09/07 03:56:02;;;;;;;7.97;5.00;;;;;;;16.43;89.79;101147.41;5061603;28;20036;-82
2022/09/07 03:58:30;;;;;;;8.07;4.82;;;;;;;16.51;88.73;101140.47;5062422;28;20037;-80
2022/09/07 04:00:56;;;;;;;5.95;4.65;;;;;;;16.50;88.35;101142.28;5056587;28;20021;-82
2022/09/07 04:03:22;;;;;;;5.50;5.00;;;;;;;16.51;89.48;101130.59;5062369;28;20031;-81
2022/09/07 04:05:47;;;;;;;8.13;4.97;;;;;;;16.51;89.42;101124.41;5059216;28;20432;-82
2022/09/07 04:08:12;;;;;;;7.47;5.32;;;;;;;16.49;89.81;101113.81;5061313;28;20017;-83
2022/09/07 04:10:39;;;;;;;6.78;5.47;;;;;;;16.49;90.32;101113.81;5061241;28;20028;-81
2022/09/07 04:13:04;;;;;;;7.30;5.05;;;;;;;16.55;89.84;101117.72;5059734;28;20045;-81
2022/09/07 04:15:30;;;;;;;7.10;6.00;;;;;;;16.53;89.62;101109.00;5060146;28;20565;-82
2022/09/07 04:17:55;;;;;;;5.65;5.00;;;;;;;16.52;89.57;101112.66;5060785;28;20098;-82
2022/09/07 04:20:20;;;;;;;7.03;5.20;;;;;;;16.49;89.43;101103.09;5059788;28;20037;-82
2022/09/07 04:22:49;;;;;;;6.30;5.60;;;;;;;16.53;89.92;101100.94;5047795;28;20484;-82
2022/09/07 04:25:15;;;;;;;6.47;5.73;;;;;;;16.52;88.41;101099.25;5060375;28;20021;-82
2022/09/07 04:27:40;;;;;;;8.30;5.35;;;;;;;16.49;89.26;101110.28;5058126;28;20299;-82
2022/09/07 04:30:06;;;;;;;7.97;6.00;;;;;;;16.45;89.81;101120.44;5050484;28;20080;-82
2022/09/07 04:32:32;;;;;;;9.00;5.40;;;;;;;16.51;90.09;101133.28;5042338;28;20048;-82
2022/09/07 04:35:00;;;;;;;6.33;5.57;;;;;;;16.46;89.52;101124.84;5052049;28;20025;-80
2022/09/07 04:37:25;;;;;;;5.88;5.28;;;;;;;16.46;89.52;101131.03;5041473;28;20595;-81
2022/09/07 04:39:50;;;;;;;8.82;5.82;;;;;;;16.46;89.95;101131.03;5059412;28;20060;-81
2022/09/07 04:42:17;;;;;;;7.18;5.72;;;;;;;16.44;88.12;101126.81;5057909;28;20032;-81
2022/09/07 04:44:42;;;;;;;8.05;5.30;;;;;;;16.43;88.60;101115.25;5040121;28;20033;-81
2022/09/07 04:47:07;;;;;;;7.15;6.13;;;;;;;16.42;89.29;101132.34;5055545;28;20021;-81
2022/09/07 04:49:33;;;;;;;7.47;5.80;;;;;;;16.43;88.89;101131.31;5049532;28;20036;-81
2022/09/07 04:51:58;;;;;;;8.27;5.93;;;;;;;16.35;89.46;101114.31;5059560;28;20048;-81
2022/09/07 04:54:25;;;;;;;8.60;6.55;;;;;;;16.34;89.82;101123.34;5057550;28;20036;-80
2022/09/07 04:56:50;;;;;;;8.02;7.10;;;;;;;16.38;90.25;101117.53;5056309;28;20025;-81
2022/09/07 04:59:15;;;;;;;6.55;5.90;;;;;;;16.44;90.19;101124.97;5041687;28;20021;-81
2022/09/07 05:01:41;;;;;;;7.05;6.05;;;;;;;16.43;89.93;101125.97;5046391;28;20104;-81
2022/09/07 05:04:06;;;;;;;10.13;6.57;;;;;;;16.43;90.54;101122.44;5056668;28;20071;-81
2022/09/07 05:06:31;;;;;;;8.35;6.20;;;;;;;16.45;90.32;101115.97;5041755;28;20422;-80
2022/09/07 05:08:58;;;;;;;8.27;6.30;;;;;;;16.46;90.28;101116.78;5059891;28;20483;-80
2022/09/07 05:11:24;;;;;;;9.82;5.97;;;;;;;16.40;90.14;101109.34;5060342;28;20406;-80
2022/09/07 05:13:49;;;;;;;10.25;6.32;;;;;;;16.45;90.93;101112.41;5060421;28;20040;-80
2022/09/07 05:16:17;;;;;;;11.15;7.22;;;;;;;16.44;90.78;101108.91;5057848;28;20029;-80
2022/09/07 05:18:44;;;;;;;10.55;7.78;;;;;;;16.37;89.28;101105.13;5024107;28;20025;-81
2022/09/07 05:21:11;;;;;;;7.03;6.40;;;;;;;16.35;89.76;101106.25;5043250;28;20047;-81
2022/09/07 05:23:37;;;;;;;10.95;7.18;;;;;;;16.38;90.25;101122.06;5061545;28;20100;-82
2022/09/07 05:26:04;;;;;;;9.02;7.05;;;;;;;16.37;90.67;101115.84;5060410;28;20048;-81
2022/09/07 05:28:29;;;;;;;10.85;7.40;;;;;;;16.39;89.85;101113.03;5050161;28;20407;-81
2022/09/07 05:31:08;;;;;;;11.32;7.63;;;;;;;16.40;90.45;101115.56;5039588;28;20036;-81
2022/09/07 05:33:35;;;;;;;9.82;7.95;;;;;;;16.40;90.50;101114.69;5056651;28;20025;-80
2022/09/07 05:36:01;;;;;;;12.98;7.82;;;;;;;16.35;90.58;101109.78;5065543;28;20021;-80
2022/09/07 05:38:27;;;;;;;11.73;8.27;;;;;;;16.36;89.79;101119.53;5067359;28;20032;-80
2022/09/07 05:40:52;;;;;;;10.23;8.10;;;;;;;16.41;90.48;101119.09;5063859;28;20021;-80
2022/09/07 05:43:17;;;;;;;9.68;8.07;;;;;;;16.41;89.66;101116.41;5063590;28;20040;-81
2022/09/07 05:45:43;;;;;;;9.48;8.45;;;;;;;16.40;90.98;101120.94;5064836;28;20021;-81
2022/09/07 05:48:08;;;;;;;9.63;8.70;;;;;;;16.44;90.95;101119.63;5061965;28;20017;-80
2022/09/07 05:50:34;;;;;;;15.07;10.15;;;;;;;16.39;90.32;101119.22;5061564;28;20048;-80
2022/09/07 05:53:00;;;;;;;10.20;9.05;;;;;;;16.43;91.30;101120.59;5046217;28;20045;-80
2022/09/07 05:55:26;;;;;;;11.05;10.00;;;;;;;16.49;91.02;101123.69;5063849;28;20059;-80
2022/09/07 05:57:52;;;;;;;11.13;9.88;;;;;;;16.47;90.20;101134.56;5086334;28;20036;-81
2022/09/07 06:00:20;;;;;;;12.95;11.00;;;;;;;16.50;91.50;101139.63;5068410;28;20028;-82
2022/09/07 06:02:46;;;;;;;13.57;10.10;;;;;;;16.51;90.36;101138.63;5054364;28;20471;-84
2022/09/07 06:05:11;;;;;;;13.93;10.10;;;;;;;16.51;90.18;101152.03;5053878;28;20061;-83
2022/09/07 06:07:39;;;;;;;12.70;10.70;;;;;;;16.45;91.11;101158.84;5055262;28;20399;-82
2022/09/07 06:10:08;;;;;;;11.73;9.38;;;;;;;16.47;89.52;101150.66;5061720;28;20328;-83
2022/09/07 06:12:34;;;;;;;11.70;9.73;;;;;;;16.53;90.75;101152.72;5044969;28;20022;-83
2022/09/07 06:15:00;;;;;;;11.82;10.60;;;;;;;16.51;90.10;101154.72;5053741;28;20495;-81
2022/09/07 06:17:29;;;;;;;11.50;9.90;;;;;;;16.56;90.14;101159.66;5053388;28;20074;-82
2022/09/07 06:19:55;;;;;;;13.07;9.90;;;;;;;16.58;90.27;101152.28;5035363;28;20047;-82
2022/09/07 06:22:20;;;;;;;12.20;11.00;;;;;;;16.57;90.26;101154.13;5049289;28;20109;-82
2022/09/07 06:24:45;;;;;;;14.63;10.63;;;;;;;16.62;90.19;101159.03;5045492;28;20035;-81
2022/09/07 06:27:11;;;;;;;16.63;11.10;;;;;;;16.64;90.64;101168.63;5035723;28;20033;-82
2022/09/07 06:29:36;;;;;;;14.90;11.20;;;;;;;16.70;91.11;101159.13;5043106;28;20460;-82
2022/09/07 06:32:02;;;;;;;14.13;11.20;;;;;;;16.69;90.13;101167.34;5054300;28;20472;-82
2022/09/07 06:34:27;;;;;;;14.00;12.07;;;;;;;16.70;91.54;101172.53;5044932;28;20087;-81
2022/09/07 06:36:52;;;;;;;14.45;12.05;;;;;;;16.73;92.08;101168.72;5045968;28;20075;-81
2022/09/07 06:39:18;;;;;;;15.00;13.25;;;;;;;16.76;91.45;101171.13;5033499;28;20094;-82
2022/09/07 06:41:43;;;;;;;16.85;14.38;;;;;;;16.78;91.81;101172.63;5051574;28;20375;-82
2022/09/07 06:44:11;;;;;;;18.60;15.57;;;;;;;16.76;91.69;101177.31;5053442;28;20115;-83
2022/09/07 06:46:39;;;;;;;19.13;15.73;;;;;;;16.84;91.76;101181.94;5054601;28;20374;-83
2022/09/07 06:49:04;;;;;;;18.42;16.33;;;;;;;16.87;92.10;101172.75;5036302;28;20029;-83
2022/09/07 06:51:30;;;;;;;20.33;17.20;;;;;;;16.95;92.63;101172.84;5054409;28;20131;-83
2022/09/07 06:53:56;;;;;;;20.38;18.23;;;;;;;17.00;92.65;101170.56;5054651;28;20428;-83
2022/09/07 06:56:23;;;;;;;23.60;18.50;;;;;;;17.08;92.37;101176.00;5055064;28;20029;-84
2022/09/07 06:58:55;;;;;;;24.25;20.17;;;;;;;17.16;92.74;101177.94;5042937;28;20032;-83
2022/09/07 07:01:22;;;;;;;27.13;21.88;;;;;;;17.19;92.65;101174.97;5055884;28;20041;-82
2022/09/07 07:03:48;;;;;;;25.13;21.88;;;;;;;17.23;92.55;101175.50;5041258;28;20033;-82
2022/09/07 07:06:13;;;;;;;26.30;23.23;;;;;;;17.30;92.67;101176.56;5056074;28;20507;-82
2022/09/07 07:08:39;;;;;;;26.98;23.60;;;;;;;17.38;93.24;101173.94;5058348;28;20399;-81
2022/09/07 07:11:07;;;;;;;27.85;24.95;;;;;;;17.44;93.47;101181.41;5060707;28;20026;-83
2022/09/07 07:13:40;;;;;;;30.75;26.08;;;;;;;17.50;92.91;101182.59;5049247;28;20025;-82
2022/09/07 07:16:19;;;;;;;33.35;26.73;;;;;;;17.64;93.79;101187.44;5057189;28;20040;-81
2022/09/07 07:18:51;;;;;;;30.15;27.05;;;;;;;17.79;93.50;101181.50;5056928;28;20141;-82
2022/09/07 07:21:17;;;;;;;30.33;27.08;;;;;;;17.91;92.85;101183.81;5050189;28;20032;-82
2022/09/07 07:23:43;;;;;;;32.28;26.88;;;;;;;18.06;92.50;101178.69;5045696;28;20029;-82
2022/09/07 07:26:14;;;;;;;32.90;28.67;;;;;;;18.16;92.63;101185.81;5050796;28;20028;-83
2022/09/07 07:28:48;;;;;;;34.60;29.27;;;;;;;18.24;92.16;101185.88;5052690;28;20029;-83
2022/09/07 07:31:15;;;;;;;31.38;27.83;;;;;;;18.30;91.06;101190.59;5054843;28;20021;-83
2022/09/07 07:36:27;;;;;;;30.00;27.00;;;;;;;18.22;88.82;101194.09;5055653;28;20470;-80
2022/09/07 07:38:54;;;;;;;27.90;25.08;;;;;;;18.21;89.95;101199.63;5054607;28;20049;-80
2022/09/07 07:41:24;;;;;;;29.42;26.27;;;;;;;18.33;90.49;101195.66;5056435;28;20028;-81
2022/09/07 07:43:55;;;;;;;28.25;25.20;;;;;;;18.51;89.90;101205.50;5056239;28;20037;-82
2022/09/07 07:46:23;;;;;;;25.60;22.95;;;;;;;18.54;88.87;101203.31;5064146;28;20064;-83
2022/09/07 07:48:48;;;;;;;26.48;23.70;;;;;;;18.62;89.24;101200.69;5065578;28;20024;-83
2022/09/07 07:51:13;;;;;;;25.40;22.83;;;;;;;18.83;87.98;101200.25;5046620;28;20051;-84
2022/09/07 07:53:40;;;;;;;24.50;22.02;;;;;;;19.02;86.79;101207.22;5054251;28;20092;-83
2022/09/07 07:56:07;;;;;;;23.65;21.30;;;;;;;19.19;87.21;101209.97;5051734;28;20550;-85
2022/09/07 07:58:35;;;;;;;22.45;20.08;;;;;;;19.25;85.19;101211.16;5057482;28;20033;-83
2022/09/07 08:01:11;;;;;;;22.42;20.15;;;;;;;19.26;84.25;101212.84;5052665;28;20026;-83
2022/09/07 08:03:39;;;;;;;21.25;19.00;;;;;;;19.29;83.78;101218.72;5047925;28;20078;-83
2022/09/07 08:06:10;;;;;;;22.95;20.63;;;;;;;19.40;84.59;101210.34;5043635;28;20022;-83
2022/09/07 08:08:36;;;;;;;23.85;21.33;;;;;;;19.49;83.02;101207.66;5045398;28;20377;-82
2022/09/07 08:11:07;;;;;;;21.55;19.42;;;;;;;19.67;83.70;101216.41;5044812;28;20029;-83
2022/09/07 08:13:35;;;;;;;21.67;19.40;;;;;;;19.93;83.11;101218.09;5055342;28;20052;-83
2022/09/07 08:16:00;;;;;;;21.45;19.13;;;;;;;20.13;82.50;101216.75;5058857;28;20017;-82
2022/09/07 08:18:26;;;;;;;20.80;18.70;;;;;;;20.24;81.11;101220.09;5058475;28;20036;-82
2022/09/07 08:20:51;;;;;;;20.65;18.52;;;;;;;20.34;81.01;101228.84;5055388;28;20398;-81
2022/09/07 08:23:19;;;;;;;20.33;18.13;;;;;;;20.50;79.49;101223.41;5065621;28;20029;-82
2022/09/07 08:25:52;;;;;;;19.65;17.60;;;;;;;20.59;78.33;101221.50;5065130;28;20283;-82
2022/09/07 08:28:18;;;;;;;20.35;17.02;;;;;;;20.70;77.64;101221.16;5066662;28;20032;-82
2022/09/07 08:30:44;;;;;;;19.25;17.02;;;;;;;20.79;76.58;101224.66;5056102;28;20060;-83
2022/09/07 08:33:09;;;;;;;17.65;15.95;;;;;;;20.98;77.09;101226.06;5065116;28;20029;-82
2022/09/07 08:35:34;;;;;;;17.80;16.00;;;;;;;21.18;76.78;101221.09;5064242;28;20029;-81
2022/09/07 08:37:59;;;;;;;20.15;15.82;;;;;;;21.36;76.69;101218.09;5062835;28;20056;-81
2022/09/07 08:40:25;;;;;;;19.03;16.23;;;;;;;21.55;77.74;101227.63;5064099;28;20029;-81
2022/09/07 08:43:01;;;;;;;20.05;15.40;;;;;;;21.71;74.86;101226.63;5061424;28;20822;-81
2022/09/07 08:45:33;;;;;;;15.18;13.57;;;;;;;21.85;76.04;101219.59;5062938;28;20052;-82
2022/09/07 08:47:58;;;;;;;16.65;14.88;;;;;;;22.07;72.28;101228.69;5058737;28;20048;-81
2022/09/07 08:50:32;;;;;;;15.20;13.48;;;;;;;22.13;72.26;101236.06;5054670;28;20017;-81
2022/09/07 08:53:07;;;;;;;15.00;13.48;;;;;;;22.24;72.39;101225.81;5055131;28;20041;-82
2022/09/07 08:55:37;;;;;;;13.88;12.57;;;;;;;22.50;70.21;101228.13;5046991;28;20029;-81
2022/09/07 08:58:19;;;;;;;14.85;12.73;;;;;;;22.82;72.48;101229.56;5062643;28;20036;-82
2022/09/07 09:00:47;;;;;;;13.50;12.10;;;;;;;22.97;69.04;101226.00;5063685;28;20029;-80
2022/09/07 09:03:21;;;;;;;12.77;11.27;;;;;;;23.32;67.77;101231.63;5062766;28;20028;-82
2022/09/07 09:06:04;;;;;;;11.52;10.30;;;;;;;23.41;67.53;101223.16;5059114;28;20040;-81
2022/09/07 09:08:49;;;;;;;11.60;9.98;;;;;;;23.45;65.70;101229.88;5058063;28;20087;-82
2022/09/07 09:11:32;;;;;;;12.80;10.10;;;;;;;23.45;66.40;101235.31;5030166;28;20090;-82
2022/09/07 09:14:09;;;;;;;11.90;10.70;;;;;;;23.64;66.36;101241.13;5059337;28;20029;-83
2022/09/07 09:16:39;;;;;;;10.82;9.65;;;;;;;23.76;64.35;101230.59;5060594;28;20025;-85
2022/09/07 09:19:19;;;;;;;9.20;8.25;;;;;;;23.85;64.44;101228.59;5057836;28;20027;-82
2022/09/07 09:21:45;;;;;;;10.52;9.18;;;;;;;23.77;61.78;101229.56;5057377;28;20174;-83
2022/09/07 09:24:16;;;;;;;9.48;7.68;;;;;;;23.69;61.67;101225.09;5075407;28;20523;-84
2022/09/07 09:26:47;;;;;;;10.45;7.07;;;;;;;23.94;61.56;101227.44;5065772;28;20427;-84
2022/09/07 09:29:16;;;;;;;8.38;7.30;;;;;;;24.12;61.06;101229.66;5064194;28;20074;-84
2022/09/07 09:31:41;;;;;;;9.43;6.63;;;;;;;24.34;60.72;101225.00;5056992;28;20525;-84
2022/09/07 09:34:10;;;;;;;9.30;6.07;;;;;;;24.36;58.20;101226.47;5047505;28;20104;-85
2022/09/07 09:36:48;;;;;;;;;;;;;;;24.58;61.79;101234.56;5067329;28;20445;-84
2022/09/07 09:39:36;;;;;;;10.68;7.40;;;;;;;24.65;60.26;101230.00;5061172;28;19912;-84
2022/09/07 09:42:10;;;;;;;9.52;5.63;;;;;;;24.78;58.49;101229.22;5065638;28;20032;-86
2022/09/07 09:44:37;;;;;;;9.13;4.75;;;;;;;24.84;56.14;101224.84;5064287;28;20030;-83
2022/09/07 09:47:04;;;;;;;8.25;4.97;;;;;;;25.09;56.97;101231.41;5053264;28;20052;-84
2022/09/07 09:49:36;;;;;;;7.20;3.88;;;;;;;25.23;54.23;101223.28;5059091;28;20468;-85
2022/09/07 09:52:04;;;;;;;7.65;3.10;;;;;;;25.27;53.12;101227.31;5035270;28;20058;-85
2022/09/07 09:54:35;;;;;;;11.27;3.92;;;;;;;25.57;53.84;101225.06;5058509;28;20542;-83
2022/09/07 09:57:00;;;;;;;10.48;4.10;;;;;;;25.60;52.28;101223.81;5059000;28;20029;-83
2022/09/07 09:59:36;;;;;;;8.57;3.70;;;;;;;25.66;54.42;101225.69;5056463;28;20539;-83
2022/09/07 10:02:28;;;;;;;7.45;3.42;;;;;;;25.81;53.93;101225.50;5055835;28;20020;-83
2022/09/07 10:04:53;;;;;;;7.70;3.30;;;;;;;25.80;51.70;101219.22;5039413;28;20051;-83
2022/09/07 10:07:27;;;;;;;6.13;2.80;;;;;;;25.80;53.89;101215.66;5049698;28;20029;-83
2022/09/07 10:09:54;;;;;;;6.95;2.80;;;;;;;25.98;51.86;101212.31;5045557;28;20268;-83
2022/09/07 10:12:28;;;;;;;9.50;2.65;;;;;;;26.10;50.75;101220.72;5057478;28;20124;-84
2022/09/07 10:14:55;;;;;;;6.35;2.28;;;;;;;26.35;52.34;101201.81;5054858;28;20033;-83
2022/09/07 10:17:30;;;;;;;9.57;3.03;;;;;;;26.59;50.42;101195.63;5055444;28;20459;-83
2022/09/07 10:20:02;;;;;;;4.97;2.38;;;;;;;26.77;50.51;101196.84;5049258;28;20030;-83
2022/09/07 10:22:35;;;;;;;5.88;2.47;;;;;;;26.98;48.76;101194.84;5041894;28;20356;-82
2022/09/07 10:25:03;;;;;;;5.35;2.33;;;;;;;27.27;48.46;101199.72;5038517;28;20025;-83
2022/09/07 10:27:29;;;;;;;7.37;3.17;;;;;;;27.35;47.88;101200.56;5048698;28;20431;-83
2022/09/07 10:29:54;;;;;;;9.37;2.77;;;;;;;27.63;47.51;101200.13;5056121;28;20108;-83
2022/09/07 10:32:24;;;;;;;7.82;2.35;;;;;;;27.55;44.66;101208.59;5066636;28;20107;-82
2022/09/07 10:35:19;;;;;;;6.65;2.35;;;;;;;27.72;48.89;101189.78;5035092;28;20037;-84
2022/09/07 10:38:14;;;;;;;6.18;1.70;;;;;;;27.74;47.94;101190.38;5029770;28;20044;-83
2022/09/07 10:40:48;;;;;;;4.60;2.00;;;;;;;27.82;46.21;101193.66;5055372;28;20051;-83
2022/09/07 10:43:23;;;;;;;4.30;1.88;;;;;;;28.02;46.60;101193.50;5054852;28;20032;-84
2022/09/07 10:46:08;;;;;;;7.00;2.10;;;;;;;28.35;45.39;101186.84;5036568;28;20040;-84
2022/09/07 10:49:15;;;;;;;7.38;2.22;;;;;;;28.55;46.88;101183.06;5052432;28;20382;-83
2022/09/07 10:51:43;;;;;;;5.93;2.15;;;;;;;28.35;44.20;101186.03;5053318;28;20508;-84
2022/09/07 10:54:52;;;;;;;6.82;2.30;;;;;;;28.28;45.93;101183.38;5053775;28;20029;-83
2022/09/07 10:57:35;;;;;;;7.68;2.13;;;;;;;28.16;43.14;101185.16;5043292;28;20507;-84
2022/09/07 11:00:09;;;;;;;4.70;2.03;;;;;;;27.72;43.28;101184.31;5054857;28;20053;-84
2022/09/07 11:02:53;;;;;;;6.63;2.03;;;;;;;27.57;43.57;101179.19;5055174;28;20426;-83
2022/09/07 11:05:45;;;;;;;5.25;1.95;;;;;;;27.56;46.58;101183.78;5055295;28;20023;-83
2022/09/07 11:08:52;;;;;;;4.50;1.83;;;;;;;27.64;45.90;101171.78;5054533;28;21306;-82
2022/09/07 11:11:25;;;;;;;5.32;2.00;;;;;;;27.65;45.21;101173.44;5055262;28;20020;-83
2022/09/07 11:13:55;;;;;;;6.35;2.28;;;;;;;27.43;45.61;101172.97;5054710;28;20029;-83
2022/09/07 11:16:24;;;;;;;5.63;1.85;;;;;;;27.74;43.35;101172.09;5044080;28;20040;-83
2022/09/07 11:18:55;;;;;;;7.68;2.38;;;;;;;27.86;42.48;101166.72;5054635;28;20063;-83
2022/09/07 11:21:26;;;;;;;7.13;2.03;;;;;;;27.87;42.45;101171.16;5054431;28;20036;-83
2022/09/07 11:24:02;;;;;;;6.32;2.50;;;;;;;28.04;43.31;101172.25;5054582;28;20025;-82
2022/09/07 11:26:52;;;;;;;5.82;2.08;;;;;;;28.22;44.02;101167.88;5054620;28;20037;-85
2022/09/07 11:29:32;;;;;;;7.50;2.30;;;;;;;28.21;43.25;101167.03;5054740;28;20059;-85
2022/09/07 11:32:15;;;;;;;6.10;2.33;;;;;;;28.23;43.34;101159.47;5054476;28;20040;-84
2022/09/07 11:35:05;;;;;;;5.90;2.25;;;;;;;28.45;40.83;101161.72;5051526;28;20504;-86
2022/09/07 11:37:40;;;;;;;5.40;2.25;;;;;;;28.62;42.16;101164.69;5038237;28;20017;-84
2022/09/07 11:40:23;;;;;;;7.75;2.33;;;;;;;28.53;41.78;101169.63;5054074;28;20115;-85
2022/09/07 11:42:58;;;;;;;4.43;1.90;;;;;;;28.46;39.94;101166.09;5053917;28;20112;-85
2022/09/07 11:45:38;;;;;;;7.05;2.03;;;;;;;28.67;42.17;101169.47;5054589;28;20086;-86